Wheeling Ohio County Airport Wheeling US
ICAO: KHLG
IATA: HLG
Category: Medium
Scheduled Services: No

Elevation: 1195 ft
TransAlt. 18000 ft.

Airport Communications:
PITTSBURG APP/DEP:118.65
ASOS:127.375
CTAF:118.1
GND:121.75
ELKINS RDO:118.65
TWR:118.1
UNICOM:122.95

KHLG Zoom In..

Runways:

(A) RW 03 length 5002 ft width 150 ft
ILS 109.70 / hdg 33

(B) RW 16 length 4499 ft width 150 ft
---- / hdg 158

(C) RW 21 length 5002 ft width 150 ft
---- / hdg 213

(D) RW 34 length 4499 ft width 150 ft
---- / hdg 338

Location; KHLG
Day. 29 / Time. 17.53 Zulu
* Altimeter: 30.05
* Temperature: 11° c. 51.8°f.
* Wind from: VRB° Speed 03 kn.
Dewpoint: -02° c.
Visibility: 10 Statute Miles.
Clouds: Clear (automated report).

KHLG 291753Z VRB03KT 10SM CLR 11/M02 A3005 RMK AO2 SLP183 T01061022 10106 21006 58028

Going to: --> -->


Wind From VRB°
Speed 03 kn.

 
 
jpsmedia worldairports.se 2020   terms of use